14CA weather

Hoag Memorial Hospital Heliport
Newport Beach, California, United States

Public forecast

Using degrees Fahrenheit for public forecast. Weather courtesy of forecast.io.

Closest aviation weather report (METAR) to Hoag Memorial Hospital Heliport

Closest report is John Wayne Airport-Orange County Airport, 4.4 nm (8.1 km) NE. Retrieved 2020/07/02 11:53 UTC (32 minutes ago):

KSNA 021153Z AUTO 13004KT 10SM OVC018 19/14 A2990 RMK AO2 SLP123 T01890139 10189 20183 53000

Closest aviation forecast (TAF) to Hoag Memorial Hospital Heliport

Closest forecast is John Wayne Airport-Orange County Airport, 4.4 nm (8.1 km) NE. Retrieved 2020/07/02 12:24 UTC (57 seconds ago):

TAF KSNA 021120Z 0212/0312 VRB04KT P6SM OVC017 FM021900 23009KT P6SM SCT015 FM030300 VRB04KT P6SM SCT012 FM030600 VRB04KT P6SM BKN012